createdAt,value
2019-04-20T00:00:19.083Z,1013.29
2019-04-20T00:01:25.764Z,1013.25
2019-04-20T00:02:22.066Z,1013.24
2019-04-20T00:03:18.214Z,1013.26
2019-04-20T00:04:23.415Z,1013.22
2019-04-20T00:05:19.139Z,1013.20
2019-04-20T00:06:19.389Z,1013.19
2019-04-20T00:07:18.732Z,1013.19
2019-04-20T00:08:23.361Z,1013.20
2019-04-20T00:09:24.669Z,1013.17
2019-04-20T00:10:21.571Z,1013.12
2019-04-20T00:11:25.720Z,1013.11
2019-04-20T00:12:33.259Z,1013.13
2019-04-20T00:13:28.821Z,1013.09
2019-04-20T00:14:24.614Z,1013.15
2019-04-20T00:15:19.690Z,1013.17
2019-04-20T00:16:18.936Z,1013.15
2019-04-20T00:17:17.997Z,1013.13
2019-04-20T00:18:19.078Z,1013.10
2019-04-20T00:19:27.114Z,1013.15
2019-04-20T00:20:24.165Z,1013.13
2019-04-20T00:21:19.705Z,1013.11
2019-04-20T00:22:18.772Z,1013.11
2019-04-20T00:23:23.461Z,1013.13
2019-04-20T00:24:25.005Z,1013.11
2019-04-20T00:25:23.518Z,1013.12
2019-04-20T00:26:27.396Z,1013.08
2019-04-20T00:27:43.103Z,1013.07
2019-04-20T00:28:39.780Z,1013.11
2019-04-20T00:29:35.596Z,1013.08
2019-04-20T00:30:39.074Z,1013.05
2019-04-20T00:31:36.535Z,1013.01
2019-04-20T00:32:35.970Z,1013.02
2019-04-20T00:33:31.649Z,1013.01
2019-04-20T00:34:26.395Z,1013.03
2019-04-20T00:35:18.919Z,1012.99
2019-04-20T00:36:18.054Z,1012.98
2019-04-20T00:37:19.162Z,1012.97
2019-04-20T00:38:18.109Z,1012.97
2019-04-20T00:39:18.890Z,1013.01
2019-04-20T00:40:17.783Z,1012.96
2019-04-20T00:41:20.349Z,1012.98
2019-04-20T00:42:18.531Z,1012.98
2019-04-20T00:43:21.035Z,1012.93
2019-04-20T00:44:24.270Z,1012.98
2019-04-20T00:45:25.789Z,1012.99
2019-04-20T00:46:26.402Z,1012.97
2019-04-20T00:47:32.330Z,1012.90
2019-04-20T00:48:28.421Z,1012.96
2019-04-20T00:49:36.350Z,1012.93
2019-04-20T00:50:35.831Z,1012.93
2019-04-20T00:51:35.331Z,1012.96
2019-04-20T00:52:30.415Z,1012.95
2019-04-20T00:53:25.791Z,1012.99
2019-04-20T00:54:18.577Z,1012.96
2019-04-20T00:55:19.007Z,1012.97
2019-04-20T00:56:18.258Z,1012.94
2019-04-20T00:57:24.662Z,1012.98
2019-04-20T00:58:25.945Z,1012.98
2019-04-20T00:59:32.870Z,1012.97
2019-04-20T01:00:39.756Z,1013.00
2019-04-20T01:01:36.213Z,1012.98
2019-04-20T01:02:30.178Z,1012.98
2019-04-20T01:03:34.056Z,1012.93
2019-04-20T01:04:39.236Z,1012.94
2019-04-20T01:05:35.445Z,1012.96
2019-04-20T01:06:34.191Z,1012.93
2019-04-20T01:07:32.076Z,1012.94
2019-04-20T01:08:19.089Z,1012.94
2019-04-20T01:09:18.257Z,1012.95
2019-04-20T01:10:19.345Z,1012.91
2019-04-20T01:11:24.554Z,1012.93
2019-04-20T01:12:24.631Z,1012.92
2019-04-20T01:13:22.859Z,1012.98
2019-04-20T01:14:26.072Z,1012.97
2019-04-20T01:15:28.137Z,1012.96
2019-04-20T01:16:31.970Z,1012.90
2019-04-20T01:17:18.475Z,1012.90
2019-04-20T01:18:17.556Z,1012.94
2019-04-20T01:19:19.243Z,1012.91
2019-04-20T01:20:22.654Z,1012.95
2019-04-20T01:21:22.931Z,1012.91
2019-04-20T01:22:22.398Z,1012.94
2019-04-20T01:23:22.312Z,1012.91
2019-04-20T01:24:24.884Z,1012.89
2019-04-20T01:25:28.388Z,1012.92
2019-04-20T01:26:20.955Z,1012.94
2019-04-20T01:27:32.459Z,1012.93
2019-04-20T01:28:35.492Z,1012.91
2019-04-20T01:29:29.088Z,1012.97
2019-04-20T01:30:24.904Z,1012.94
2019-04-20T01:31:27.262Z,1012.97
2019-04-20T01:32:26.848Z,1012.98
2019-04-20T01:33:31.738Z,1013.00
2019-04-20T01:34:32.496Z,1012.96
2019-04-20T01:35:38.180Z,1012.98
2019-04-20T01:36:36.845Z,1012.98
2019-04-20T01:37:29.764Z,1012.98
2019-04-20T01:38:34.662Z,1013.03
2019-04-20T01:39:27.612Z,1012.99
2019-04-20T01:40:19.099Z,1012.98
2019-04-20T01:41:18.152Z,1012.97
2019-04-20T01:42:17.248Z,1012.95
2019-04-20T01:43:18.348Z,1012.99
2019-04-20T01:44:23.922Z,1012.95
2019-04-20T01:45:27.120Z,1012.94
2019-04-20T01:46:23.053Z,1012.98
2019-04-20T01:47:19.065Z,1012.97
2019-04-20T01:48:23.932Z,1013.00
2019-04-20T01:49:22.274Z,1012.96
2019-04-20T01:50:23.002Z,1012.96
2019-04-20T01:51:24.896Z,1012.97
2019-04-20T01:52:23.355Z,1012.99
2019-04-20T01:53:37.755Z,1012.97
2019-04-20T01:54:33.927Z,1012.95
2019-04-20T01:55:35.891Z,1012.97
2019-04-20T01:56:31.589Z,1012.94
2019-04-20T01:57:23.823Z,1013.00
2019-04-20T01:58:43.239Z,1012.97
2019-04-20T01:59:31.741Z,1012.96
2019-04-20T02:00:25.325Z,1012.96
2019-04-20T02:01:23.060Z,1012.97
2019-04-20T02:02:21.194Z,1012.94
2019-04-20T02:03:24.064Z,1012.95
2019-04-20T02:04:25.017Z,1012.94
2019-04-20T02:05:24.934Z,1012.94
2019-04-20T02:06:20.234Z,1012.93
2019-04-20T02:07:18.388Z,1012.96
2019-04-20T02:08:21.439Z,1012.96
2019-04-20T02:09:21.162Z,1012.93
2019-04-20T02:10:19.999Z,1012.93
2019-04-20T02:11:23.137Z,1012.99
2019-04-20T02:12:23.554Z,1012.98
2019-04-20T02:13:17.766Z,1012.97
2019-04-20T02:14:25.617Z,1013.01
2019-04-20T02:15:27.831Z,1013.00
2019-04-20T02:16:26.466Z,1013.01
2019-04-20T02:17:27.906Z,1013.05
2019-04-20T02:18:29.992Z,1013.09
2019-04-20T02:19:31.994Z,1013.06
2019-04-20T02:20:41.761Z,1013.08
2019-04-20T02:21:34.256Z,1013.08
2019-04-20T02:22:38.346Z,1013.06
2019-04-20T02:23:31.752Z,1013.10
2019-04-20T02:24:17.942Z,1013.10
2019-04-20T02:25:16.878Z,1013.07
2019-04-20T02:26:17.708Z,1013.04
2019-04-20T02:27:20.557Z,1013.08
2019-04-20T02:28:37.400Z,1013.06
2019-04-20T02:29:43.156Z,1013.11
2019-04-20T02:32:11.861Z,1013.08
2019-04-20T02:32:55.898Z,1013.12
2019-04-20T02:33:47.256Z,1013.09
2019-04-20T02:34:57.750Z,1013.10
2019-04-20T02:35:52.782Z,1013.09
2019-04-20T02:36:58.024Z,1013.10
2019-04-20T02:38:03.560Z,1013.08
2019-04-20T02:40:54.079Z,1013.13
2019-04-20T02:41:51.685Z,1013.11
2019-04-20T02:42:51.528Z,1013.13
2019-04-20T02:45:23.989Z,1013.12
2019-04-20T02:45:44.210Z,1013.12
2019-04-20T02:46:55.367Z,1013.13
2019-04-20T02:48:52.886Z,1013.13
2019-04-20T02:49:51.396Z,1013.14
2019-04-20T02:50:49.908Z,1013.17
2019-04-20T02:54:06.198Z,1013.14
2019-04-20T02:54:54.992Z,1013.15
2019-04-20T02:55:55.830Z,1013.17
2019-04-20T02:57:05.816Z,1013.15
2019-04-20T02:57:54.815Z,1013.16
2019-04-20T02:58:50.305Z,1013.16
2019-04-20T02:59:59.473Z,1013.18
2019-04-20T03:00:38.221Z,1013.17
2019-04-20T03:01:36.971Z,1013.16
2019-04-20T03:02:33.450Z,1013.13
2019-04-20T03:03:30.199Z,1013.16
2019-04-20T03:04:29.075Z,1013.13
2019-04-20T03:05:29.749Z,1013.13
2019-04-20T03:06:28.131Z,1013.13
2019-04-20T03:07:30.404Z,1013.09
2019-04-20T03:08:33.078Z,1013.10
2019-04-20T03:09:39.951Z,1013.12
2019-04-20T03:10:48.450Z,1013.07
2019-04-20T03:11:48.515Z,1013.08
2019-04-20T03:12:38.800Z,1013.07
2019-04-20T03:13:39.658Z,1013.06
2019-04-20T03:14:31.934Z,1013.06
2019-04-20T03:15:37.476Z,1013.09
2019-04-20T03:16:36.066Z,1013.00
2019-04-20T03:17:38.764Z,1013.09
2019-04-20T03:18:35.018Z,1013.11
2019-04-20T03:19:35.438Z,1013.05
2019-04-20T03:20:41.832Z,1013.13
2019-04-20T03:21:41.833Z,1013.14
2019-04-20T03:23:01.099Z,1013.11
2019-04-20T03:23:45.847Z,1013.16
2019-04-20T03:24:46.872Z,1013.15
2019-04-20T03:25:38.338Z,1013.13
2019-04-20T03:26:37.880Z,1013.11
2019-04-20T03:27:33.052Z,1013.13
2019-04-20T03:28:34.636Z,1013.14
2019-04-20T03:29:41.044Z,1013.10
2019-04-20T03:34:05.825Z,1013.05
2019-04-20T03:35:43.132Z,1013.09
2019-04-20T03:36:42.986Z,1013.08
2019-04-20T03:37:42.155Z,1013.07
2019-04-20T03:38:38.338Z,1013.11
2019-04-20T03:39:31.338Z,1013.10
2019-04-20T03:40:29.856Z,1013.11
2019-04-20T03:41:25.384Z,1013.11
2019-04-20T03:42:18.049Z,1013.14
2019-04-20T03:43:16.031Z,1013.13
2019-04-20T03:44:21.067Z,1013.17
2019-04-20T03:45:20.130Z,1013.15
2019-04-20T03:46:19.868Z,1013.18
2019-04-20T03:47:26.617Z,1013.16
2019-04-20T03:48:37.078Z,1013.09
2019-04-20T03:49:42.037Z,1013.12
2019-04-20T03:50:45.438Z,1013.16
2019-04-20T03:51:39.842Z,1013.11
2019-04-20T03:52:32.999Z,1013.16
2019-04-20T03:53:34.482Z,1013.16
2019-04-20T03:54:30.655Z,1013.13
2019-04-20T03:55:35.658Z,1013.15
2019-04-20T03:56:41.997Z,1013.16
2019-04-20T03:57:40.892Z,1013.17
2019-04-20T03:58:33.529Z,1013.15
2019-04-20T03:59:36.872Z,1013.14
2019-04-20T04:00:36.472Z,1013.12
2019-04-20T04:02:45.798Z,1013.12
2019-04-20T04:04:42.663Z,1013.12
2019-04-20T04:05:31.350Z,1013.15
2019-04-20T04:06:26.527Z,1013.14
2019-04-20T04:07:26.545Z,1013.15
2019-04-20T04:08:25.347Z,1013.16
2019-04-20T04:09:30.417Z,1013.16
2019-04-20T04:10:31.653Z,1013.16
2019-04-20T04:11:34.845Z,1013.18
2019-04-20T04:12:25.392Z,1013.19
2019-04-20T04:13:16.847Z,1013.17
2019-04-20T04:14:15.753Z,1013.19
2019-04-20T04:15:16.761Z,1013.15
2019-04-20T04:16:18.506Z,1013.18
2019-04-20T04:17:21.268Z,1013.18
2019-04-20T04:18:25.470Z,1013.18
2019-04-20T04:19:23.177Z,1013.19
2019-04-20T04:20:19.146Z,1013.20
2019-04-20T04:21:23.136Z,1013.18
2019-04-20T04:22:31.623Z,1013.20
2019-04-20T04:23:33.717Z,1013.21
2019-04-20T04:24:27.449Z,1013.19
2019-04-20T04:25:29.750Z,1013.24
2019-04-20T04:26:35.283Z,1013.27
2019-04-20T04:27:38.657Z,1013.25
2019-04-20T04:28:31.079Z,1013.29
2019-04-20T04:29:35.675Z,1013.27
2019-04-20T04:30:31.059Z,1013.24
2019-04-20T04:31:36.331Z,1013.24
2019-04-20T04:33:04.787Z,1013.27
2019-04-20T04:34:35.773Z,1013.30
2019-04-20T04:35:28.047Z,1013.30
2019-04-20T04:36:36.030Z,1013.32
2019-04-20T04:37:35.705Z,1013.38
2019-04-20T04:38:37.348Z,1013.33
2019-04-20T04:39:37.049Z,1013.31
2019-04-20T04:40:42.745Z,1013.32
2019-04-20T04:41:38.028Z,1013.31
2019-04-20T04:42:42.312Z,1013.29
2019-04-20T04:43:38.968Z,1013.30
2019-04-20T04:44:30.262Z,1013.32
2019-04-20T04:45:18.042Z,1013.34
2019-04-20T04:46:16.429Z,1013.34
2019-04-20T04:47:16.346Z,1013.33
2019-04-20T04:48:23.827Z,1013.35
2019-04-20T04:49:24.935Z,1013.36
2019-04-20T04:50:20.856Z,1013.35
2019-04-20T04:51:22.906Z,1013.36
2019-04-20T04:52:22.518Z,1013.40
2019-04-20T04:53:28.919Z,1013.34
2019-04-20T04:54:26.832Z,1013.35
2019-04-20T04:55:25.690Z,1013.37
2019-04-20T04:56:18.924Z,1013.39
2019-04-20T04:57:15.997Z,1013.40
2019-04-20T04:58:14.961Z,1013.40
2019-04-20T04:59:14.979Z,1013.45
2019-04-20T05:00:20.006Z,1013.43
2019-04-20T05:01:20.614Z,1013.43
2019-04-20T05:02:16.036Z,1013.43
2019-04-20T05:03:35.779Z,1013.44
2019-04-20T05:04:33.258Z,1013.48
2019-04-20T05:05:35.569Z,1013.49
2019-04-20T05:06:30.002Z,1013.48
2019-04-20T05:07:29.015Z,1013.48
2019-04-20T05:08:24.129Z,1013.47
2019-04-20T05:09:17.637Z,1013.49
2019-04-20T05:10:15.982Z,1013.42
2019-04-20T05:11:15.205Z,1013.44
2019-04-20T05:12:18.626Z,1013.46
2019-04-20T05:13:15.821Z,1013.46
2019-04-20T05:14:21.821Z,1013.43
2019-04-20T05:15:29.586Z,1013.53
2019-04-20T05:16:34.793Z,1013.48
2019-04-20T05:17:39.234Z,1013.49
2019-04-20T05:18:41.266Z,1013.51
2019-04-20T05:19:38.403Z,1013.52
2019-04-20T05:20:37.760Z,1013.51
2019-04-20T05:21:39.528Z,1013.47
2019-04-20T05:22:40.118Z,1013.47
2019-04-20T05:23:28.215Z,1013.48
2019-04-20T05:24:28.954Z,1013.49
2019-04-20T05:25:33.561Z,1013.51
2019-04-20T05:26:38.496Z,1013.51
2019-04-20T05:27:34.789Z,1013.47
2019-04-20T05:28:27.571Z,1013.50
2019-04-20T05:29:21.551Z,1013.51
2019-04-20T05:30:16.041Z,1013.50
2019-04-20T05:31:15.468Z,1013.51
2019-04-20T05:32:20.010Z,1013.46
2019-04-20T05:33:25.601Z,1013.47
2019-04-20T05:34:38.288Z,1013.47
2019-04-20T05:35:35.461Z,1013.45
2019-04-20T05:36:36.852Z,1013.47
2019-04-20T05:37:41.309Z,1013.44
2019-04-20T05:38:42.669Z,1013.39
2019-04-20T05:39:38.455Z,1013.40
2019-04-20T05:40:44.385Z,1013.46
2019-04-20T05:41:32.787Z,1013.44
2019-04-20T05:42:35.902Z,1013.46
2019-04-20T05:43:33.541Z,1013.51
2019-04-20T05:44:38.951Z,1013.48
2019-04-20T05:45:28.831Z,1013.46
2019-04-20T05:46:36.283Z,1013.44
2019-04-20T05:47:34.392Z,1013.50
2019-04-20T05:48:36.229Z,1013.47
2019-04-20T05:49:40.411Z,1013.49
2019-04-20T05:50:37.745Z,1013.48
2019-04-20T05:51:40.918Z,1013.44
2019-04-20T05:52:42.644Z,1013.45
2019-04-20T05:53:38.564Z,1013.47
2019-04-20T05:54:43.097Z,1013.46
2019-04-20T05:55:33.123Z,1013.50
2019-04-20T05:56:40.334Z,1013.48
2019-04-20T05:57:40.120Z,1013.52
2019-04-20T05:58:34.239Z,1013.50
2019-04-20T05:59:35.069Z,1013.51
2019-04-20T06:00:40.219Z,1013.51
2019-04-20T06:01:42.418Z,1013.52
2019-04-20T06:02:36.698Z,1013.54
2019-04-20T06:03:35.078Z,1013.50
2019-04-20T06:04:50.516Z,1013.50
2019-04-20T06:05:36.385Z,1013.52
2019-04-20T06:06:39.169Z,1013.48
2019-04-20T06:07:40.374Z,1013.44
2019-04-20T06:08:51.622Z,1013.49
2019-04-20T06:09:34.123Z,1013.45
2019-04-20T06:10:43.596Z,1013.49
2019-04-20T06:11:44.765Z,1013.48
2019-04-20T06:12:36.345Z,1013.46
2019-04-20T06:13:29.909Z,1013.48
2019-04-20T06:14:25.700Z,1013.52
2019-04-20T06:15:30.588Z,1013.50
2019-04-20T06:16:42.635Z,1013.50
2019-04-20T06:17:40.045Z,1013.48
2019-04-20T06:18:32.806Z,1013.50
2019-04-20T06:19:35.924Z,1013.48
2019-04-20T06:20:38.038Z,1013.49
2019-04-20T06:21:37.896Z,1013.51
2019-04-20T06:22:42.905Z,1013.52
2019-04-20T06:24:55.412Z,1013.55
2019-04-20T06:25:46.925Z,1013.57
2019-04-20T06:26:48.836Z,1013.54
2019-04-20T06:27:41.075Z,1013.55
2019-04-20T06:28:34.197Z,1013.62
2019-04-20T06:29:39.561Z,1013.62
2019-04-20T06:30:32.793Z,1013.59
2019-04-20T06:31:35.618Z,1013.59
2019-04-20T06:32:38.897Z,1013.59
2019-04-20T06:33:52.028Z,1013.63
2019-04-20T06:35:51.626Z,1013.62
2019-04-20T06:36:43.104Z,1013.62
2019-04-20T06:37:39.128Z,1013.61
2019-04-20T06:41:02.301Z,1013.63
2019-04-20T06:41:54.281Z,1013.56
2019-04-20T06:42:35.678Z,1013.60
2019-04-20T06:43:42.176Z,1013.65
2019-04-20T06:44:46.358Z,1013.62
2019-04-20T06:45:45.907Z,1013.66
2019-04-20T06:46:34.678Z,1013.67
2019-04-20T06:47:41.012Z,1013.68
2019-04-20T06:48:42.543Z,1013.72
2019-04-20T06:49:36.676Z,1013.65
2019-04-20T06:50:32.932Z,1013.70
2019-04-20T06:51:34.594Z,1013.69
2019-04-20T06:52:32.798Z,1013.68
2019-04-20T06:53:37.019Z,1013.69
2019-04-20T06:54:36.088Z,1013.66
2019-04-20T06:55:45.190Z,1013.71
2019-04-20T06:56:37.996Z,1013.69
2019-04-20T06:57:35.759Z,1013.69
2019-04-20T06:58:43.738Z,1013.69
2019-04-20T06:59:39.289Z,1013.68
2019-04-20T07:00:30.796Z,1013.66
2019-04-20T07:01:43.226Z,1013.73
2019-04-20T07:04:43.289Z,1013.67
2019-04-20T07:05:33.126Z,1013.73
2019-04-20T07:07:36.301Z,1013.63
2019-04-20T07:08:48.868Z,1013.70
2019-04-20T07:09:47.412Z,1013.68
2019-04-20T07:10:40.707Z,1013.66
2019-04-20T07:11:34.280Z,1013.70
2019-04-20T07:12:32.973Z,1013.72
2019-04-20T07:13:27.702Z,1013.70
2019-04-20T07:14:31.369Z,1013.70
2019-04-20T07:15:32.594Z,1013.71
2019-04-20T07:16:34.884Z,1013.68
2019-04-20T07:17:49.035Z,1013.74
2019-04-20T07:18:40.541Z,1013.75
2019-04-20T07:19:31.348Z,1013.77
2019-04-20T07:20:39.696Z,1013.73
2019-04-20T07:21:44.959Z,1013.72
2019-04-20T07:23:43.615Z,1013.76
2019-04-20T07:24:40.340Z,1013.77
2019-04-20T07:25:37.412Z,1013.74
2019-04-20T07:26:41.705Z,1013.75
2019-04-20T07:27:36.646Z,1013.76
2019-04-20T07:28:42.389Z,1013.76
2019-04-20T07:29:40.832Z,1013.78
2019-04-20T07:30:35.360Z,1013.77
2019-04-20T07:31:29.608Z,1013.75
2019-04-20T07:32:44.161Z,1013.74
2019-04-20T07:33:40.183Z,1013.77
2019-04-20T07:34:33.032Z,1013.74
2019-04-20T07:35:36.043Z,1013.74
2019-04-20T07:36:42.241Z,1013.71
2019-04-20T07:38:39.956Z,1013.72
2019-04-20T07:39:33.046Z,1013.75
2019-04-20T07:40:35.651Z,1013.72
2019-04-20T07:41:42.970Z,1013.68
2019-04-20T07:42:51.876Z,1013.70
2019-04-20T07:43:30.533Z,1013.66
2019-04-20T07:44:46.627Z,1013.72
2019-04-20T07:45:33.006Z,1013.70
2019-04-20T07:46:47.148Z,1013.72
2019-04-20T07:47:42.901Z,1013.76
2019-04-20T07:48:33.817Z,1013.77
2019-04-20T07:49:37.313Z,1013.77
2019-04-20T07:50:29.567Z,1013.74
2019-04-20T07:51:21.065Z,1013.74
2019-04-20T07:52:14.395Z,1013.78
2019-04-20T07:53:32.044Z,1013.72
2019-04-20T07:54:35.775Z,1013.72
2019-04-20T07:56:40.731Z,1013.77
2019-04-20T07:57:31.042Z,1013.81
2019-04-20T07:58:25.240Z,1013.85
2019-04-20T07:59:28.833Z,1013.91
2019-04-20T08:00:41.531Z,1014.01
2019-04-20T08:01:47.935Z,1014.01
2019-04-20T08:02:46.927Z,1013.99
2019-04-20T08:03:42.581Z,1014.05
2019-04-20T08:04:32.410Z,1014.09
2019-04-20T08:05:27.429Z,1014.11
2019-04-20T08:06:21.290Z,1014.14
2019-04-20T08:07:15.669Z,1014.16
2019-04-20T08:08:30.730Z,1014.14
2019-04-20T08:09:27.220Z,1014.21
2019-04-20T08:10:30.926Z,1014.18
2019-04-20T08:11:36.743Z,1014.19
2019-04-20T08:12:44.855Z,1014.19
2019-04-20T08:13:41.981Z,1014.23
2019-04-20T08:14:42.403Z,1014.25
2019-04-20T08:16:47.087Z,1014.29
2019-04-20T08:17:37.541Z,1014.23
2019-04-20T08:18:41.298Z,1014.29
2019-04-20T08:19:35.361Z,1014.26
2019-04-20T08:20:31.274Z,1014.28
2019-04-20T08:21:35.186Z,1014.24
2019-04-20T08:22:35.481Z,1014.30
2019-04-20T08:23:33.583Z,1014.28
2019-04-20T08:24:34.465Z,1014.31
2019-04-20T08:25:23.793Z,1014.38
2019-04-20T08:26:20.199Z,1014.32
2019-04-20T08:27:15.951Z,1014.32
2019-04-20T08:28:21.083Z,1014.32
2019-04-20T08:29:21.704Z,1014.35
2019-04-20T08:30:33.608Z,1014.35
2019-04-20T08:31:24.526Z,1014.33
2019-04-20T08:32:32.440Z,1014.34
2019-04-20T08:33:36.453Z,1014.38
2019-04-20T08:34:35.393Z,1014.37
2019-04-20T08:35:39.285Z,1014.38
2019-04-20T08:36:33.217Z,1014.40
2019-04-20T08:37:34.431Z,1014.38
2019-04-20T08:38:51.518Z,1014.37
2019-04-20T08:39:48.124Z,1014.39
2019-04-20T08:40:37.344Z,1014.39
2019-04-20T08:41:29.767Z,1014.42
2019-04-20T08:42:37.868Z,1014.41
2019-04-20T08:43:47.050Z,1014.43
2019-04-20T08:45:34.841Z,1014.42
2019-04-20T08:46:36.686Z,1014.47
2019-04-20T08:47:54.895Z,1014.43
2019-04-20T08:48:32.882Z,1014.48
2019-04-20T08:49:37.804Z,1014.48
2019-04-20T08:50:39.400Z,1014.47
2019-04-20T08:51:41.846Z,1014.45
2019-04-20T08:52:55.655Z,1014.46
2019-04-20T08:53:36.468Z,1014.51
2019-04-20T08:54:32.961Z,1014.50
2019-04-20T08:55:28.358Z,1014.47
2019-04-20T08:56:25.939Z,1014.50
2019-04-20T08:57:15.605Z,1014.49
2019-04-20T08:58:13.657Z,1014.50
2019-04-20T08:59:13.682Z,1014.47
2019-04-20T09:00:13.215Z,1014.51
2019-04-20T09:01:18.492Z,1014.50
2019-04-20T09:02:15.766Z,1014.49
2019-04-20T09:03:19.913Z,1014.54
2019-04-20T09:04:19.992Z,1014.54
2019-04-20T09:05:29.466Z,1014.55
2019-04-20T09:06:29.242Z,1014.45
2019-04-20T09:07:18.594Z,1014.46
2019-04-20T09:08:20.068Z,1014.48
2019-04-20T09:10:34.372Z,1014.54
2019-04-20T09:11:31.170Z,1014.53
2019-04-20T09:12:40.899Z,1014.52
2019-04-20T09:13:23.094Z,1014.54
2019-04-20T09:14:14.139Z,1014.57
2019-04-20T09:15:12.512Z,1014.52
2019-04-20T09:16:13.148Z,1014.51
2019-04-20T09:17:23.080Z,1014.59
2019-04-20T09:18:16.985Z,1014.56
2019-04-20T09:19:24.815Z,1014.59
2019-04-20T09:20:21.875Z,1014.61
2019-04-20T09:21:27.133Z,1014.56
2019-04-20T09:22:24.340Z,1014.59
2019-04-20T09:23:28.839Z,1014.61
2019-04-20T09:24:36.212Z,1014.59
2019-04-20T09:26:34.307Z,1014.56
2019-04-20T09:27:28.505Z,1014.62
2019-04-20T09:28:23.452Z,1014.61
2019-04-20T09:29:28.457Z,1014.59
2019-04-20T09:30:24.344Z,1014.67
2019-04-20T09:31:25.613Z,1014.67
2019-04-20T09:32:33.263Z,1014.71
2019-04-20T09:33:34.847Z,1014.66
2019-04-20T09:34:38.962Z,1014.69
2019-04-20T09:35:34.209Z,1014.65
2019-04-20T09:36:30.727Z,1014.67
2019-04-20T09:37:31.018Z,1014.71
2019-04-20T09:38:32.534Z,1014.72
2019-04-20T09:39:22.465Z,1014.66
2019-04-20T09:40:30.896Z,1014.68
2019-04-20T09:41:31.371Z,1014.66
2019-04-20T09:42:13.079Z,1014.64
2019-04-20T09:43:15.484Z,1014.63
2019-04-20T09:44:13.281Z,1014.67
2019-04-20T09:45:19.998Z,1014.68
2019-04-20T09:46:13.751Z,1014.70
2019-04-20T09:47:29.505Z,1014.73
2019-04-20T09:48:19.990Z,1014.66
2019-04-20T09:49:20.773Z,1014.64
2019-04-20T09:50:29.276Z,1014.66
2019-04-20T09:51:30.204Z,1014.65
2019-04-20T09:52:27.896Z,1014.63
2019-04-20T09:53:26.932Z,1014.58
2019-04-20T09:54:34.027Z,1014.48
2019-04-20T09:55:26.796Z,1014.36
2019-04-20T09:56:30.347Z,1014.18
2019-04-20T09:57:29.564Z,1014.30
2019-04-20T09:58:26.324Z,1014.14
2019-04-20T09:59:33.669Z,1014.07
2019-04-20T10:00:32.190Z,1013.98
2019-04-20T10:01:22.764Z,1013.91
2019-04-20T10:02:18.778Z,1013.84
2019-04-20T10:03:14.414Z,1013.83
2019-04-20T10:04:13.178Z,1013.82
2019-04-20T10:05:11.781Z,1013.78
2019-04-20T10:06:11.764Z,1013.77
2019-04-20T10:07:17.622Z,1013.71
2019-04-20T10:08:13.664Z,1013.73
2019-04-20T10:09:11.729Z,1013.74
2019-04-20T10:10:21.418Z,1013.68
2019-04-20T10:11:13.851Z,1013.71
2019-04-20T10:12:11.708Z,1013.70
2019-04-20T10:13:11.651Z,1013.67
2019-04-20T10:14:12.349Z,1013.64
2019-04-20T10:15:17.666Z,1013.63
2019-04-20T10:16:13.518Z,1013.66
2019-04-20T10:17:11.919Z,1013.62
2019-04-20T10:18:12.034Z,1013.65
2019-04-20T10:19:12.018Z,1013.59
2019-04-20T10:20:19.377Z,1013.59
2019-04-20T10:21:13.761Z,1013.58
2019-04-20T10:22:12.911Z,1013.59
2019-04-20T10:23:12.442Z,1013.53
2019-04-20T10:24:12.549Z,1013.54
2019-04-20T10:25:12.751Z,1013.53
2019-04-20T10:26:12.293Z,1013.50
2019-04-20T10:27:12.600Z,1013.51
2019-04-20T10:28:11.854Z,1013.50
2019-04-20T10:29:11.551Z,1013.53
2019-04-20T10:30:12.473Z,1013.45
2019-04-20T10:31:12.733Z,1013.49
2019-04-20T10:32:30.933Z,1013.48
2019-04-20T10:33:13.355Z,1013.46
2019-04-20T10:34:11.675Z,1013.46
2019-04-20T10:35:13.847Z,1013.48
2019-04-20T10:36:11.985Z,1013.49
2019-04-20T10:37:11.528Z,1013.49
2019-04-20T10:38:11.553Z,1013.45
2019-04-20T10:39:12.620Z,1013.43
2019-04-20T10:40:11.560Z,1013.47
2019-04-20T10:41:20.428Z,1013.44
2019-04-20T10:42:12.348Z,1013.44
2019-04-20T10:43:12.123Z,1013.40
2019-04-20T10:44:12.304Z,1013.40
2019-04-20T10:45:12.742Z,1013.38
2019-04-20T10:46:11.314Z,1013.35
2019-04-20T10:47:11.405Z,1013.41
2019-04-20T10:48:11.379Z,1013.41
2019-04-20T10:49:11.452Z,1013.32
2019-04-20T10:50:11.457Z,1013.38
2019-04-20T10:51:12.737Z,1013.36
2019-04-20T10:52:11.687Z,1013.44
2019-04-20T10:53:12.115Z,1013.55
2019-04-20T10:54:12.164Z,1013.64
2019-04-20T10:55:12.383Z,1013.76
2019-04-20T10:56:11.698Z,1013.89
2019-04-20T10:57:11.223Z,1013.93
2019-04-20T10:58:11.503Z,1013.93
2019-04-20T10:59:11.880Z,1014.00
2019-04-20T11:00:11.227Z,1014.02
2019-04-20T11:01:11.528Z,1014.00
2019-04-20T11:02:12.072Z,1013.99
2019-04-20T11:03:11.162Z,1013.93
2019-04-20T11:04:12.455Z,1013.81
2019-04-20T11:05:12.672Z,1013.74
2019-04-20T11:06:14.400Z,1013.62
2019-04-20T11:07:12.513Z,1013.51
2019-04-20T11:08:12.647Z,1013.52
2019-04-20T11:09:11.792Z,1013.38
2019-04-20T11:10:21.714Z,1013.36
2019-04-20T11:11:21.322Z,1013.32
2019-04-20T11:12:13.008Z,1013.21
2019-04-20T11:13:11.735Z,1013.23
2019-04-20T11:14:19.043Z,1013.20
2019-04-20T11:15:12.485Z,1013.19
2019-04-20T11:16:11.037Z,1013.29
2019-04-20T11:17:12.265Z,1013.20
2019-04-20T11:18:11.310Z,1013.21
2019-04-20T11:19:11.658Z,1013.19
2019-04-20T11:20:10.996Z,1013.16
2019-04-20T11:21:11.415Z,1013.15
2019-04-20T11:22:14.538Z,1013.14
2019-04-20T11:23:12.234Z,1013.08
2019-04-20T11:24:12.133Z,1013.13
2019-04-20T11:25:12.316Z,1013.14
2019-04-20T11:26:10.892Z,1013.13
2019-04-20T11:27:12.041Z,1013.15
2019-04-20T11:28:12.253Z,1013.14
2019-04-20T11:29:10.885Z,1013.12
2019-04-20T11:30:12.064Z,1013.22
2019-04-20T11:31:12.317Z,1013.22
2019-04-20T11:32:13.450Z,1013.46
2019-04-20T11:33:11.906Z,1013.60
2019-04-20T11:34:16.138Z,1013.68
2019-04-20T11:35:20.008Z,1013.70
2019-04-20T11:36:12.924Z,1013.76
2019-04-20T11:37:11.069Z,1013.74
2019-04-20T11:38:13.780Z,1013.75
2019-04-20T11:39:12.164Z,1013.79
2019-04-20T11:40:11.323Z,1013.81
2019-04-20T11:41:17.884Z,1013.82
2019-04-20T11:42:12.177Z,1013.83
2019-04-20T11:43:11.500Z,1013.84
2019-04-20T11:44:11.712Z,1013.76
2019-04-20T11:45:10.937Z,1013.84
2019-04-20T11:46:10.721Z,1013.83
2019-04-20T11:47:10.803Z,1013.85
2019-04-20T11:48:11.613Z,1013.79
2019-04-20T11:49:10.920Z,1013.86
2019-04-20T11:50:11.428Z,1013.82
2019-04-20T11:51:11.663Z,1013.87
2019-04-20T11:52:10.711Z,1013.90
2019-04-20T11:53:11.270Z,1013.93
2019-04-20T11:54:10.663Z,1013.86
2019-04-20T11:55:10.601Z,1013.83
2019-04-20T11:56:18.004Z,1013.85
2019-04-20T11:57:13.303Z,1013.85
2019-04-20T11:58:12.053Z,1013.83
2019-04-20T11:59:12.470Z,1013.82
2019-04-20T12:00:11.035Z,1013.77
2019-04-20T12:01:14.195Z,1013.79
2019-04-20T12:02:20.110Z,1013.81
2019-04-20T12:03:21.814Z,1013.79
2019-04-20T12:04:25.180Z,1013.80
2019-04-20T12:05:23.888Z,1013.83
2019-04-20T12:06:12.718Z,1013.77
2019-04-20T12:07:11.057Z,1013.75
2019-04-20T12:08:11.204Z,1013.73
2019-04-20T12:09:10.822Z,1013.76
2019-04-20T12:10:15.832Z,1013.78
2019-04-20T12:11:24.263Z,1013.75
2019-04-20T12:12:24.608Z,1013.77
2019-04-20T12:13:14.419Z,1013.69
2019-04-20T12:14:10.541Z,1013.68
2019-04-20T12:15:10.621Z,1013.71
2019-04-20T12:16:11.754Z,1013.70
2019-04-20T12:17:11.519Z,1013.66
2019-04-20T12:18:11.619Z,1013.66
2019-04-20T12:19:10.934Z,1013.68
2019-04-20T12:20:10.403Z,1013.67
2019-04-20T12:21:10.676Z,1013.65
2019-04-20T12:22:11.775Z,1013.68
2019-04-20T12:23:10.591Z,1013.69
2019-04-20T12:24:14.217Z,1013.66
2019-04-20T12:25:10.502Z,1013.66
2019-04-20T12:26:10.851Z,1013.67
2019-04-20T12:27:10.333Z,1013.61
2019-04-20T12:28:17.827Z,1013.63
2019-04-20T12:29:10.295Z,1013.60
2019-04-20T12:30:10.281Z,1013.58
2019-04-20T12:31:14.786Z,1013.61
2019-04-20T12:32:12.614Z,1013.60
2019-04-20T12:33:11.398Z,1013.57